Time;durP1;ratioP1;P1;durP2;ratioP2;P2;SDS_P1;SDS_P2;PMS_P1;PMS_P2;Temp;Humidity;BMP_temperature;BMP_pressure;BME280_temperature;BME280_humidity;BME280_pressure;Samples;Min_cycle;Max_cycle;Signal;HPM_P1;HPM_P2
2024/01/31 00:02:07;;;;;;;44.70;29.87;;;7.00;43.60;;;;;;5051001;28;20178;-46
2024/01/31 00:04:32;;;;;;;45.60;27.50;;;7.10;43.50;;;;;;5051243;28;21077;-47
2024/01/31 00:06:58;;;;;;;44.43;27.00;;;7.10;43.40;;;;;;5051265;28;20580;-51
2024/01/31 00:09:24;;;;;;;43.37;28.80;;;7.20;43.40;;;;;;5051427;28;20925;-50
2024/01/31 00:11:50;;;;;;;44.87;29.67;;;7.20;43.20;;;;;;5051078;28;20185;-48
2024/01/31 00:14:18;;;;;;;42.53;26.50;;;7.20;43.20;;;;;;5051183;28;20190;-47
2024/01/31 00:16:44;;;;;;;47.20;27.30;;;7.30;43.20;;;;;;5051368;28;20201;-50
2024/01/31 00:19:10;;;;;;;41.35;25.58;;;7.30;43.00;;;;;;5051274;28;20186;-47
2024/01/31 00:21:36;;;;;;;46.20;28.42;;;7.40;42.80;;;;;;5050625;28;20198;-48
2024/01/31 00:24:01;;;;;;;49.93;29.07;;;7.40;42.70;;;;;;5050957;28;20276;-48
2024/01/31 00:26:27;;;;;;;45.33;30.43;;;7.40;42.70;;;;;;5051500;28;20732;-52
2024/01/31 00:28:53;;;;;;;51.90;30.73;;;7.40;42.80;;;;;;5055131;28;20276;-47
2024/01/31 00:31:18;;;;;;;45.53;27.57;;;7.40;42.80;;;;;;5054527;28;20180;-53
2024/01/31 00:33:46;;;;;;;47.20;30.03;;;7.40;42.80;;;;;;5054732;28;20610;-52
2024/01/31 00:36:12;;;;;;;45.45;29.40;;;7.40;42.80;;;;;;5054684;28;20181;-47
2024/01/31 00:38:38;;;;;;;46.37;30.10;;;7.40;42.90;;;;;;5054858;28;20176;-48
2024/01/31 00:41:05;;;;;;;51.93;30.20;;;7.40;42.80;;;;;;5054559;28;20217;-52
2024/01/31 00:43:30;;;;;;;45.75;29.08;;;7.40;42.80;;;;;;5054224;28;20197;-47
2024/01/31 00:45:56;;;;;;;49.30;28.70;;;7.40;42.80;;;;;;5054660;28;20177;-46
2024/01/31 00:48:22;;;;;;;46.27;30.67;;;7.40;42.80;;;;;;5054573;28;20655;-52
2024/01/31 00:50:48;;;;;;;44.90;29.20;;;7.40;42.90;;;;;;5054517;28;20182;-48
2024/01/31 00:53:13;;;;;;;49.27;28.27;;;7.40;42.80;;;;;;5054301;28;20197;-48
2024/01/31 00:55:39;;;;;;;46.37;28.83;;;7.40;42.80;;;;;;5054624;28;20416;-47
2024/01/31 00:58:05;;;;;;;44.80;29.10;;;7.50;42.90;;;;;;5054521;28;20189;-50
2024/01/31 01:00:31;;;;;;;41.97;28.60;;;7.50;42.90;;;;;;5054345;28;20683;-52
2024/01/31 01:02:56;;;;;;;50.70;32.10;;;7.50;42.90;;;;;;5053760;28;20177;-47
2024/01/31 01:05:22;;;;;;;50.90;30.30;;;7.50;42.90;;;;;;5054273;28;20170;-52
2024/01/31 01:07:48;;;;;;;50.03;28.93;;;7.40;42.80;;;;;;5054577;28;20227;-49
2024/01/31 01:10:15;;;;;;;45.28;29.20;;;7.40;42.90;;;;;;5054114;28;20404;-48
2024/01/31 01:12:44;;;;;;;45.20;27.95;;;7.40;43.00;;;;;;5053774;28;20182;-51
2024/01/31 01:15:10;;;;;;;55.45;34.88;;;7.40;43.10;;;;;;5053992;28;20186;-48
2024/01/31 01:17:36;;;;;;;49.80;31.05;;;7.40;43.10;;;;;;5054307;28;20185;-48
2024/01/31 01:20:02;;;;;;;50.97;32.08;;;7.40;43.20;;;;;;5053931;28;20254;-50
2024/01/31 01:22:28;;;;;;;51.83;31.38;;;7.40;43.20;;;;;;5053519;28;20174;-49
2024/01/31 01:24:54;;;;;;;57.50;32.00;;;7.40;43.20;;;;;;5053648;28;20200;-47
2024/01/31 01:27:20;;;;;;;51.33;28.77;;;7.50;43.20;;;;;;5054033;28;20174;-50
2024/01/31 01:29:46;;;;;;;48.87;30.93;;;7.50;43.20;;;;;;5053900;28;20946;-50
2024/01/31 01:32:11;;;;;;;50.63;30.23;;;7.50;43.20;;;;;;5053702;28;20640;-47
2024/01/31 01:34:41;;;;;;;49.67;33.37;;;7.50;43.20;;;;;;5053626;28;20424;-52
2024/01/31 01:37:07;;;;;;;53.38;32.28;;;7.50;43.20;;;;;;5053643;28;20174;-52
2024/01/31 01:39:37;;;;;;;45.72;30.00;;;7.50;43.20;;;;;;5053718;28;20184;-47
2024/01/31 01:42:03;;;;;;;46.65;29.50;;;7.50;43.20;;;;;;5053098;28;20742;-46
2024/01/31 01:44:32;;;;;;;46.63;30.25;;;7.50;43.20;;;;;;5053428;28;20201;-51
2024/01/31 01:46:58;;;;;;;55.45;33.33;;;7.50;43.20;;;;;;5053349;28;20188;-51
2024/01/31 01:49:25;;;;;;;51.03;32.53;;;7.60;43.20;;;;;;5053529;28;20193;-49
2024/01/31 01:51:51;;;;;;;44.67;30.10;;;7.60;43.10;;;;;;5052889;28;20268;-53
2024/01/31 01:54:17;;;;;;;53.97;31.58;;;7.50;43.10;;;;;;5053351;28;20201;-52
2024/01/31 01:56:45;;;;;;;53.20;31.60;;;7.60;43.20;;;;;;5053405;28;20174;-47
2024/01/31 01:59:12;;;;;;;48.03;30.50;;;7.60;43.10;;;;;;5053315;28;20419;-47
2024/01/31 02:01:39;;;;;;;55.95;32.28;;;7.60;43.20;;;;;;5052612;28;20208;-50
2024/01/31 02:04:07;;;;;;;45.13;30.38;;;7.60;43.10;;;;;;5053036;28;20194;-48
2024/01/31 02:06:33;;;;;;;53.35;31.80;;;7.60;43.10;;;;;;5053131;28;20679;-47
2024/01/31 02:09:00;;;;;;;51.50;30.60;;;7.50;43.20;;;;;;5053059;28;20185;-50
2024/01/31 02:11:25;;;;;;;54.90;31.25;;;7.50;43.30;;;;;;5052827;28;20184;-48
2024/01/31 02:13:51;;;;;;;52.00;31.70;;;7.50;43.20;;;;;;5052884;28;20201;-49
2024/01/31 02:16:17;;;;;;;44.40;30.87;;;7.60;43.40;;;;;;5052826;28;20473;-50
2024/01/31 02:18:43;;;;;;;47.00;28.47;;;7.50;43.40;;;;;;5052917;28;20181;-47
2024/01/31 02:21:09;;;;;;;47.80;28.77;;;7.60;43.20;;;;;;5052955;28;20198;-47
2024/01/31 02:23:35;;;;;;;46.50;29.00;;;7.60;43.10;;;;;;5052231;28;20193;-49
2024/01/31 02:26:00;;;;;;;53.27;32.70;;;7.60;42.90;;;;;;5052756;28;20652;-48
2024/01/31 02:28:26;;;;;;;44.83;30.27;;;7.60;43.00;;;;;;5053028;28;20174;-47
2024/01/31 02:30:52;;;;;;;49.50;29.73;;;7.60;43.00;;;;;;5052519;28;20239;-49
2024/01/31 02:33:17;;;;;;;46.03;29.60;;;7.70;43.10;;;;;;5051798;28;20244;-50
2024/01/31 02:35:43;;;;;;;50.80;31.50;;;7.70;43.00;;;;;;5052557;28;20255;-47
2024/01/31 02:38:09;;;;;;;48.13;29.30;;;7.70;43.00;;;;;;5052480;28;20254;-49
2024/01/31 02:40:34;;;;;;;43.97;30.40;;;7.80;43.00;;;;;;5052417;28;20209;-52
2024/01/31 02:43:00;;;;;;;52.07;30.77;;;7.80;42.90;;;;;;5051875;28;20178;-51
2024/01/31 02:45:29;;;;;;;43.90;28.33;;;7.90;43.00;;;;;;5052269;28;20177;-48
2024/01/31 02:47:55;;;;;;;48.15;29.38;;;7.90;42.80;;;;;;5052345;28;20181;-49
2024/01/31 02:50:21;;;;;;;50.03;31.80;;;7.90;42.80;;;;;;5051970;28;20189;-49
2024/01/31 02:52:48;;;;;;;56.23;34.13;;;7.80;42.60;;;;;;5051800;28;20796;-48
2024/01/31 02:55:14;;;;;;;51.08;32.00;;;7.90;43.50;;;;;;5052265;28;20489;-49
2024/01/31 02:57:39;;;;;;;57.37;32.47;;;7.80;42.70;;;;;;5052242;28;20675;-51
2024/01/31 03:00:06;;;;;;;53.03;30.63;;;7.90;43.60;;;;;;5051965;28;21000;-48
2024/01/31 03:02:32;;;;;;;48.50;30.40;;;7.90;42.80;;;;;;5051576;28;20405;-47
2024/01/31 03:04:58;;;;;;;44.97;31.10;;;7.90;42.70;;;;;;5052152;28;20689;-53
2024/01/31 03:07:24;;;;;;;45.93;31.30;;;7.90;42.80;;;;;;5052087;28;20166;-48
2024/01/31 03:09:49;;;;;;;50.10;30.37;;;7.90;42.80;;;;;;5052052;28;20276;-52
2024/01/31 03:12:15;;;;;;;44.97;31.67;;;7.90;42.70;;;;;;5051441;28;20261;-48
2024/01/31 03:14:41;;;;;;;52.03;32.43;;;7.80;42.80;;;;;;5051841;28;20194;-47
2024/01/31 03:17:07;;;;;;;54.67;33.97;;;7.80;42.90;;;;;;5051827;28;20670;-48
2024/01/31 03:19:32;;;;;;;50.93;32.80;;;7.80;43.20;;;;;;5051922;28;20174;-50
2024/01/31 03:21:58;;;;;;;55.77;35.00;;;7.80;43.10;;;;;;5051329;28;20215;-48
2024/01/31 03:24:25;;;;;;;52.03;32.42;;;7.80;43.00;;;;;;5051922;28;20185;-49
2024/01/31 03:26:51;;;;;;;56.55;31.10;;;7.80;43.20;;;;;;5051777;28;20201;-51
2024/01/31 03:29:17;;;;;;;50.63;31.05;;;7.80;43.20;;;;;;5051697;28;20182;-52
2024/01/31 03:31:43;;;;;;;47.08;28.98;;;7.80;43.10;;;;;;5051220;28;20683;-48
2024/01/31 03:34:08;;;;;;;49.13;31.10;;;7.90;43.10;;;;;;5051528;28;20209;-52
2024/01/31 03:36:35;;;;;;;51.33;30.77;;;7.90;43.10;;;;;;5051835;28;20173;-54
2024/01/31 03:39:00;;;;;;;55.63;33.30;;;7.80;43.00;;;;;;5051827;28;20420;-48
2024/01/31 03:41:27;;;;;;;47.73;29.70;;;7.90;43.10;;;;;;5050997;28;20584;-50
2024/01/31 03:43:54;;;;;;;45.47;30.70;;;7.90;43.00;;;;;;5051265;28;20788;-52
2024/01/31 03:46:21;;;;;;;49.50;31.92;;;7.90;43.10;;;;;;5051952;28;20178;-50
2024/01/31 03:48:47;;;;;;;44.85;30.77;;;8.00;42.90;;;;;;5051608;28;20249;-48
2024/01/31 03:51:20;;;;;;;50.83;34.42;;;8.00;42.80;;;;;;5051724;28;20189;-49
2024/01/31 03:53:47;;;;;;;50.72;32.67;;;8.00;42.80;;;;;;5051430;28;20197;-49
2024/01/31 03:56:12;;;;;;;43.95;29.40;;;8.00;42.80;;;;;;5051403;28;20280;-52
2024/01/31 03:58:39;;;;;;;50.37;29.93;;;8.00;42.80;;;;;;5051657;28;20244;-46
2024/01/31 04:01:05;;;;;;;51.88;30.95;;;8.00;42.70;;;;;;5051382;28;20491;-48
2024/01/31 04:03:30;;;;;;;53.08;31.52;;;8.00;42.70;;;;;;5054560;28;20193;-49
2024/01/31 04:05:56;;;;;;;51.63;29.57;;;8.00;42.80;;;;;;5055346;28;20184;-48
2024/01/31 04:08:22;;;;;;;52.27;30.47;;;8.00;42.80;;;;;;5055559;28;20173;-48
2024/01/31 04:10:48;;;;;;;51.87;32.43;;;7.90;42.80;;;;;;5055373;28;20440;-51
2024/01/31 04:13:13;;;;;;;52.03;31.67;;;7.90;43.00;;;;;;5054927;28;20197;-48
2024/01/31 04:15:39;;;;;;;53.47;32.10;;;7.90;43.00;;;;;;5055179;28;20174;-46
2024/01/31 04:18:07;;;;;;;54.57;30.70;;;7.90;43.00;;;;;;5055139;28;20547;-52
2024/01/31 04:20:34;;;;;;;53.85;34.95;;;7.90;43.10;;;;;;5055175;28;20561;-52
2024/01/31 04:23:00;;;;;;;48.22;32.17;;;7.90;43.10;;;;;;5054682;28;20683;-46
2024/01/31 04:25:26;;;;;;;54.23;33.70;;;8.00;42.90;;;;;;5055065;28;20182;-50
2024/01/31 04:27:52;;;;;;;51.57;33.53;;;8.00;42.80;;;;;;5055333;28;20204;-51
2024/01/31 04:30:18;;;;;;;50.57;32.10;;;7.90;43.10;;;;;;5054958;28;20678;-47
2024/01/31 04:32:44;;;;;;;52.53;34.47;;;7.90;43.20;;;;;;5054383;28;20276;-51
2024/01/31 04:35:10;;;;;;;50.80;30.90;;;7.90;43.20;;;;;;5054703;28;20228;-51
2024/01/31 04:37:36;;;;;;;54.85;31.13;;;8.00;43.20;;;;;;5054885;28;20586;-46
2024/01/31 04:40:02;;;;;;;52.03;31.93;;;8.00;43.00;;;;;;5054582;28;20272;-52
2024/01/31 04:42:27;;;;;;;44.20;31.13;;;8.10;43.70;;;;;;5054273;28;20419;-53
2024/01/31 04:44:53;;;;;;;49.90;28.60;;;8.10;42.80;;;;;;5054562;28;20436;-47
2024/01/31 04:47:19;;;;;;;51.63;33.43;;;8.10;42.70;;;;;;5034939;28;20229;-47
2024/01/31 04:49:45;;;;;;;50.57;35.40;;;8.10;42.60;;;;;;5034820;28;20171;-50
2024/01/31 04:52:11;;;;;;;46.73;30.60;;;8.10;42.70;;;;;;5034152;28;20413;-52
2024/01/31 04:54:39;;;;;;;51.75;32.53;;;8.10;42.70;;;;;;5034756;28;20194;-48
2024/01/31 04:57:06;;;;;;;44.50;31.10;;;8.20;42.70;;;;;;5034593;28;20261;-51
2024/01/31 04:59:39;;;;;;;50.95;33.63;;;8.20;42.70;;;;;;5034597;28;20177;-53
2024/01/31 05:02:06;;;;;;;53.30;35.08;;;8.20;42.70;;;;;;5034056;28;20256;-48
2024/01/31 05:04:32;;;;;;;52.60;35.15;;;8.20;42.60;;;;;;5034640;28;20288;-50
2024/01/31 05:06:58;;;;;;;47.33;31.77;;;8.30;42.70;;;;;;5034356;28;20257;-49
2024/01/31 05:09:24;;;;;;;52.27;32.73;;;8.30;42.50;;;;;;5038529;28;20261;-48
2024/01/31 05:11:50;;;;;;;59.13;33.47;;;8.30;42.50;;;;;;5046149;28;20179;-50
2024/01/31 05:14:15;;;;;;;52.63;33.00;;;8.40;42.40;;;;;;5033727;28;20190;-46
2024/01/31 05:16:42;;;;;;;51.33;32.30;;;8.40;42.30;;;;;;5034369;28;20925;-52
2024/01/31 05:19:11;;;;;;;54.60;35.75;;;8.40;42.10;;;;;;5034220;28;20261;-48
2024/01/31 05:21:44;;;;;;;53.70;34.22;;;8.40;42.10;;;;;;5033484;28;20195;-48
2024/01/31 05:24:10;;;;;;;56.45;34.55;;;8.30;42.20;;;;;;5033956;28;20229;-52
2024/01/31 05:26:36;;;;;;;49.57;31.33;;;8.30;42.30;;;;;;5034267;28;20198;-47
2024/01/31 05:29:02;;;;;;;52.67;33.03;;;8.20;42.20;;;;;;5033946;28;20514;-52
2024/01/31 05:31:27;;;;;;;50.30;32.20;;;8.20;42.30;;;;;;5033660;28;20224;-46
2024/01/31 05:33:53;;;;;;;55.90;34.27;;;8.20;42.40;;;;;;5033777;28;20256;-50
2024/01/31 05:36:19;;;;;;;53.63;34.30;;;8.10;42.40;;;;;;5033856;28;20584;-50
2024/01/31 05:38:44;;;;;;;55.93;36.30;;;8.10;42.40;;;;;;5032645;28;20228;-46
2024/01/31 05:41:12;;;;;;;47.10;33.67;;;8.10;42.40;;;;;;5033728;28;20588;-48
2024/01/31 05:43:38;;;;;;;56.95;33.80;;;8.00;42.30;;;;;;5033351;28;20202;-49
2024/01/31 05:46:04;;;;;;;52.43;34.20;;;8.00;42.40;;;;;;5033609;28;20186;-47
2024/01/31 05:48:29;;;;;;;53.57;34.20;;;7.90;42.50;;;;;;5033995;28;20417;-46
2024/01/31 05:50:55;;;;;;;51.80;33.93;;;7.90;42.50;;;;;;5033571;28;20193;-50
2024/01/31 05:53:21;;;;;;;57.20;36.30;;;7.90;42.60;;;;;;5033050;28;20198;-48
2024/01/31 05:55:47;;;;;;;58.80;33.63;;;7.90;42.70;;;;;;5033926;28;20180;-47
2024/01/31 05:58:12;;;;;;;56.73;36.93;;;7.90;42.80;;;;;;5033492;28;20179;-49
2024/01/31 06:00:38;;;;;;;55.33;35.03;;;7.90;42.80;;;;;;5033361;28;20216;-50
2024/01/31 06:03:04;;;;;;;56.50;31.70;;;7.80;42.70;;;;;;5032742;28;20183;-47
2024/01/31 06:05:30;;;;;;;65.10;36.38;;;7.90;42.70;;;;;;5033557;28;20170;-49
2024/01/31 06:07:55;;;;;;;46.23;31.57;;;7.90;42.50;;;;;;5033281;28;20544;-51
2024/01/31 06:10:21;;;;;;;57.37;35.70;;;7.80;42.50;;;;;;5033213;28;20178;-48
2024/01/31 06:12:47;;;;;;;51.67;31.20;;;7.80;42.40;;;;;;5032624;28;20182;-47
2024/01/31 06:15:13;;;;;;;53.90;32.97;;;7.80;42.40;;;;;;5033082;28;20966;-49
2024/01/31 06:17:41;;;;;;;53.17;35.80;;;7.70;42.50;;;;;;5032913;28;20175;-48
2024/01/31 06:20:07;;;;;;;52.03;34.85;;;7.70;42.60;;;;;;5033251;28;20463;-47
2024/01/31 06:22:33;;;;;;;56.63;36.10;;;7.70;42.50;;;;;;5032564;28;20262;-53
2024/01/31 06:24:59;;;;;;;54.97;35.30;;;7.70;42.60;;;;;;5031895;28;20282;-49
2024/01/31 06:27:25;;;;;;;61.77;35.20;;;7.70;42.50;;;;;;5032815;28;20261;-53
2024/01/31 06:29:50;;;;;;;55.83;34.27;;;7.60;42.40;;;;;;5032969;28;20413;-47
2024/01/31 06:32:21;;;;;;;55.07;35.03;;;7.60;42.30;;;;;;5032222;28;20269;-49
2024/01/31 06:34:47;;;;;;;57.70;36.42;;;7.60;42.50;;;;;;5032641;28;20584;-52
2024/01/31 06:37:13;;;;;;;54.33;34.63;;;7.60;42.50;;;;;;5032940;28;20231;-48
2024/01/31 06:39:39;;;;;;;49.87;35.80;;;7.60;43.40;;;;;;5040886;28;20249;-48
2024/01/31 06:42:07;;;;;;;58.90;37.83;;;7.60;42.90;;;;;;5031957;28;21052;-51
2024/01/31 06:44:33;;;;;;;55.80;34.40;;;7.60;43.00;;;;;;5032383;28;20202;-48
2024/01/31 06:46:58;;;;;;;53.00;34.45;;;7.60;43.20;;;;;;5032427;28;20229;-46
2024/01/31 06:49:24;;;;;;;65.37;36.23;;;7.50;43.30;;;;;;5032573;28;20171;-52
2024/01/31 06:51:50;;;;;;;54.17;34.67;;;7.50;43.20;;;;;;5032275;28;20440;-50
2024/01/31 06:54:17;;;;;;;49.90;35.27;;;7.50;43.40;;;;;;5032338;28;20953;-49
2024/01/31 06:56:43;;;;;;;53.83;35.83;;;7.50;43.50;;;;;;5032457;28;20424;-52
2024/01/31 06:59:09;;;;;;;55.30;36.03;;;7.50;43.50;;;;;;5032312;28;20182;-51
2024/01/31 07:01:34;;;;;;;63.07;38.63;;;7.50;43.60;;;;;;5031682;28;20190;-48
2024/01/31 07:04:00;;;;;;;55.57;35.57;;;7.50;43.60;;;;;;5032136;28;20251;-52
2024/01/31 07:06:26;;;;;;;54.27;36.20;;;7.50;43.80;;;;;;5032430;28;20424;-47
2024/01/31 07:08:52;;;;;;;55.67;36.90;;;7.50;44.00;;;;;;5032159;28;20413;-48
2024/01/31 07:11:17;;;;;;;51.10;34.60;;;7.50;44.00;;;;;;5031561;28;20202;-53
2024/01/31 07:13:43;;;;;;;56.90;38.27;;;7.50;44.90;;;;;;5032055;28;20289;-47
2024/01/31 07:16:12;;;;;;;56.63;36.20;;;7.50;44.00;;;;;;5032258;28;20201;-49
2024/01/31 07:18:41;;;;;;;57.17;35.10;;;7.60;44.80;;;;;;5032317;28;20178;-53
2024/01/31 07:21:08;;;;;;;57.95;38.13;;;7.60;44.00;;;;;;5032092;28;20210;-46
2024/01/31 07:23:35;;;;;;;56.67;36.03;;;7.70;43.90;;;;;;5031501;28;20249;-49
2024/01/31 07:26:01;;;;;;;67.97;40.35;;;7.80;43.90;;;;;;5031818;28;20213;-52
2024/01/31 07:28:27;;;;;;;55.50;35.80;;;7.80;43.70;;;;;;5032167;28;20197;-50
2024/01/31 07:30:53;;;;;;;57.37;34.40;;;7.80;43.70;;;;;;5031800;28;20831;-52
2024/01/31 07:33:22;;;;;;;60.33;37.23;;;7.80;43.70;;;;;;5030951;28;20440;-47
2024/01/31 07:35:47;;;;;;;55.80;36.90;;;7.90;43.80;;;;;;5031593;28;20420;-52
2024/01/31 07:38:13;;;;;;;54.23;36.67;;;8.00;43.70;;;;;;5031782;28;20182;-47
2024/01/31 07:40:39;;;;;;;50.77;34.30;;;8.00;43.70;;;;;;5031581;28;20285;-48
2024/01/31 07:43:04;;;;;;;57.07;35.47;;;8.10;43.70;;;;;;5031013;28;20201;-48
2024/01/31 07:45:30;;;;;;;63.70;36.23;;;8.10;43.80;;;;;;5031660;28;20167;-46
2024/01/31 07:47:56;;;;;;;51.77;33.27;;;8.10;43.80;;;;;;5031720;28;20182;-52
2024/01/31 07:50:23;;;;;;;57.15;34.65;;;8.20;44.00;;;;;;5043382;28;20177;-53
2024/01/31 07:52:49;;;;;;;59.97;34.67;;;8.20;44.60;;;;;;5051045;28;20177;-47
2024/01/31 07:55:15;;;;;;;58.20;36.88;;;8.20;43.90;;;;;;5051357;28;20188;-48
2024/01/31 07:57:40;;;;;;;61.10;36.30;;;8.20;43.90;;;;;;5051521;28;20256;-54
2024/01/31 08:00:07;;;;;;;52.80;34.97;;;8.30;44.00;;;;;;5051339;28;20427;-48
2024/01/31 08:02:33;;;;;;;62.00;36.35;;;8.30;43.90;;;;;;5050955;28;20246;-50
2024/01/31 08:04:59;;;;;;;54.58;36.80;;;8.40;43.90;;;;;;5051396;28;20292;-48
2024/01/31 08:07:25;;;;;;;59.23;38.10;;;8.50;43.80;;;;;;5051489;28;20593;-49
2024/01/31 08:09:50;;;;;;;60.00;38.43;;;8.50;43.70;;;;;;5051402;28;20470;-52
2024/01/31 08:12:17;;;;;;;53.83;36.40;;;8.50;43.80;;;;;;5050792;28;20242;-48
2024/01/31 08:14:43;;;;;;;57.30;36.58;;;8.60;43.80;;;;;;5051179;28;20443;-51
2024/01/31 08:17:09;;;;;;;57.22;36.20;;;8.70;43.80;;;;;;5050020;28;20731;-51
2024/01/31 08:19:35;;;;;;;62.77;38.00;;;8.80;43.70;;;;;;5051303;28;20261;-48
2024/01/31 08:22:01;;;;;;;58.03;35.40;;;8.80;43.60;;;;;;5050716;28;20202;-48
2024/01/31 08:24:27;;;;;;;59.57;36.93;;;8.90;43.50;;;;;;5051107;28;20198;-51
2024/01/31 08:26:52;;;;;;;61.43;35.97;;;9.00;43.40;;;;;;5051146;28;20178;-47
2024/01/31 08:29:18;;;;;;;58.47;36.10;;;9.00;43.40;;;;;;5051076;28;20683;-46
2024/01/31 08:31:44;;;;;;;55.80;37.70;;;9.00;43.30;;;;;;5050736;28;20268;-55
2024/01/31 08:34:11;;;;;;;56.40;37.07;;;9.10;43.20;;;;;;5051012;28;20202;-54
2024/01/31 08:36:37;;;;;;;53.80;34.25;;;9.10;43.20;;;;;;5051096;28;20711;-47
2024/01/31 08:39:03;;;;;;;62.33;37.83;;;9.10;43.10;;;;;;5051042;28;20327;-51
2024/01/31 08:41:28;;;;;;;52.72;32.50;;;9.20;43.00;;;;;;5050390;28;20202;-48
2024/01/31 08:43:54;;;;;;;61.33;35.80;;;9.20;42.90;;;;;;5051049;28;20197;-48
2024/01/31 08:46:20;;;;;;;48.10;32.03;;;9.20;43.00;;;;;;5051089;28;20174;-49
2024/01/31 08:48:46;;;;;;;72.20;35.80;;;9.30;43.00;;;;;;5053400;28;20188;-50
2024/01/31 08:51:14;;;;;;;52.30;33.95;;;9.30;43.00;;;;;;5054608;28;20261;-48
2024/01/31 08:53:42;;;;;;;53.70;36.28;;;9.40;42.90;;;;;;5053982;28;20205;-51
2024/01/31 08:56:09;;;;;;;49.05;35.72;;;9.40;42.80;;;;;;5054464;28;20178;-48
2024/01/31 08:58:35;;;;;;;52.33;35.22;;;9.40;42.80;;;;;;5054584;28;20174;-49
2024/01/31 09:01:00;;;;;;;51.90;35.77;;;9.40;42.70;;;;;;5054408;28;20205;-52
2024/01/31 09:03:26;;;;;;;57.00;36.70;;;9.50;42.80;;;;;;5054249;28;20518;-46
2024/01/31 09:05:53;;;;;;;54.17;35.77;;;9.50;42.70;;;;;;5054322;28;20499;-50
2024/01/31 09:08:20;;;;;;;58.72;34.38;;;9.50;42.70;;;;;;5054257;28;20483;-49
2024/01/31 09:10:46;;;;;;;67.70;44.20;;;9.50;42.70;;;;;;5054351;28;20232;-48
2024/01/31 09:13:11;;;;;;;51.95;36.72;;;9.50;42.70;;;;;;5053685;28;20210;-52
2024/01/31 09:15:37;;;;;;;49.70;37.07;;;9.50;42.70;;;;;;5054212;28;20178;-48
2024/01/31 09:18:03;;;;;;;49.73;34.17;;;9.50;42.70;;;;;;5054249;28;20178;-48
2024/01/31 09:20:30;;;;;;;51.47;34.83;;;9.60;42.90;;;;;;5054343;28;20201;-51
2024/01/31 09:22:56;;;;;;;57.70;38.20;;;9.60;43.00;;;;;;5053508;28;20208;-48
2024/01/31 09:25:21;;;;;;;55.53;39.17;;;9.60;43.00;;;;;;5052593;28;20205;-48
2024/01/31 09:27:47;;;;;;;57.33;38.23;;;9.60;43.00;;;;;;5054311;28;20588;-53
2024/01/31 09:30:13;;;;;;;58.87;35.30;;;9.70;43.10;;;;;;5053901;28;20416;-50
2024/01/31 09:32:39;;;;;;;63.13;38.10;;;9.60;43.10;;;;;;5053439;28;20412;-49
2024/01/31 09:35:06;;;;;;;72.73;39.13;;;9.70;43.10;;;;;;5053910;28;20439;-50
2024/01/31 09:37:32;;;;;;;63.75;41.38;;;9.70;42.90;;;;;;5053840;28;20412;-48
2024/01/31 09:39:59;;;;;;;66.38;40.10;;;9.80;42.80;;;;;;5053464;28;20660;-50
2024/01/31 09:42:26;;;;;;;62.47;40.95;;;9.80;42.70;;;;;;5053299;28;20178;-49
2024/01/31 09:44:55;;;;;;;69.90;41.78;;;9.80;42.70;;;;;;5053616;28;20220;-48
2024/01/31 09:47:27;;;;;;;58.45;40.22;;;9.80;42.70;;;;;;5053689;28;20177;-52
2024/01/31 09:49:54;;;;;;;64.30;39.85;;;9.90;42.70;;;;;;5053566;28;20593;-46
2024/01/31 09:52:27;;;;;;;57.95;39.25;;;9.90;42.60;;;;;;5052910;28;20185;-46
2024/01/31 09:54:57;;;;;;;57.97;38.78;;;9.90;42.60;;;;;;5053753;28;20205;-54
2024/01/31 09:57:24;;;;;;;57.03;38.72;;;10.00;42.60;;;;;;5053452;28;20182;-49
2024/01/31 09:59:50;;;;;;;60.63;39.17;;;9.90;42.60;;;;;;5053424;28;20193;-46
2024/01/31 10:02:17;;;;;;;51.13;35.35;;;10.00;42.60;;;;;;5052761;28;20662;-50
2024/01/31 10:04:47;;;;;;;55.97;39.20;;;10.00;42.50;;;;;;5053140;28;20671;-47
2024/01/31 10:07:21;;;;;;;50.85;36.90;;;10.00;42.40;;;;;;5053404;28;20239;-50
2024/01/31 10:09:47;;;;;;;59.03;37.72;;;10.10;42.50;;;;;;5053176;28;20192;-48
2024/01/31 10:12:13;;;;;;;60.00;37.07;;;10.10;42.50;;;;;;5052618;28;20173;-48
2024/01/31 10:14:41;;;;;;;57.33;35.90;;;10.20;42.40;;;;;;5051731;28;20587;-52
2024/01/31 10:17:07;;;;;;;58.30;36.55;;;10.20;42.30;;;;;;5051820;28;20693;-53
2024/01/31 10:19:33;;;;;;;51.70;36.20;;;10.20;42.30;;;;;;5053195;28;20279;-48
2024/01/31 10:21:59;;;;;;;56.63;39.30;;;10.30;42.40;;;;;;5052325;28;20202;-49
2024/01/31 10:24:24;;;;;;;53.03;37.43;;;10.30;42.40;;;;;;5033058;28;20209;-53
2024/01/31 10:26:50;;;;;;;58.47;38.80;;;10.30;42.30;;;;;;5033240;28;21116;-46
2024/01/31 10:29:18;;;;;;;54.63;36.63;;;10.40;42.30;;;;;;5032909;28;20644;-50
2024/01/31 10:31:46;;;;;;;60.53;37.85;;;10.40;42.20;;;;;;5032485;28;20301;-51
2024/01/31 10:34:13;;;;;;;49.78;35.08;;;10.40;42.20;;;;;;5032599;28;20212;-48
2024/01/31 10:36:42;;;;;;;62.42;41.85;;;10.40;42.10;;;;;;5032717;28;20179;-47
2024/01/31 10:39:11;;;;;;;59.72;39.15;;;10.40;42.20;;;;;;5032665;28;20190;-53
2024/01/31 10:41:47;;;;;;;63.92;40.50;;;10.40;43.00;;;;;;5032165;28;20210;-51
2024/01/31 10:44:16;;;;;;;59.42;38.78;;;10.50;42.40;;;;;;5032566;28;20198;-45
2024/01/31 10:46:45;;;;;;;51.83;36.70;;;10.50;42.50;;;;;;5032589;28;20181;-52
2024/01/31 10:49:16;;;;;;;57.22;38.65;;;10.50;42.50;;;;;;5032565;28;20201;-51
2024/01/31 10:51:45;;;;;;;61.55;40.60;;;10.50;42.50;;;;;;5031967;28;20178;-47
2024/01/31 10:54:14;;;;;;;56.35;38.92;;;10.60;42.50;;;;;;5032378;28;20726;-48
2024/01/31 10:56:40;;;;;;;57.83;38.75;;;10.60;42.50;;;;;;5032425;28;20664;-55
2024/01/31 10:59:07;;;;;;;59.22;36.47;;;10.60;42.50;;;;;;5032182;28;20208;-54
2024/01/31 11:01:33;;;;;;;57.55;41.00;;;10.60;42.50;;;;;;5031853;28;20209;-48
2024/01/31 11:04:04;;;;;;;57.35;39.22;;;10.60;42.60;;;;;;5032075;28;20591;-52
2024/01/31 11:06:40;;;;;;;61.05;39.42;;;10.70;42.80;;;;;;5032610;28;20171;-50
2024/01/31 11:09:06;;;;;;;51.15;35.22;;;10.70;42.80;;;;;;5032250;28;20200;-47
2024/01/31 11:11:33;;;;;;;57.50;38.70;;;10.70;42.80;;;;;;5031403;28;20240;-47
2024/01/31 11:14:09;;;;;;;60.00;38.75;;;10.70;42.80;;;;;;5032207;28;20289;-49
2024/01/31 11:16:35;;;;;;;53.80;39.33;;;10.80;42.80;;;;;;5043865;28;20251;-48
2024/01/31 11:19:03;;;;;;;58.63;38.75;;;10.70;42.60;;;;;;5051871;28;20205;-55
2024/01/31 11:21:38;;;;;;;50.53;38.15;;;10.70;42.60;;;;;;5051826;28;20189;-51
2024/01/31 11:24:05;;;;;;;50.13;37.33;;;10.70;42.80;;;;;;5051879;28;20537;-48
2024/01/31 11:26:33;;;;;;;57.15;36.70;;;10.70;42.90;;;;;;5051744;28;20661;-50
2024/01/31 11:29:00;;;;;;;57.53;40.80;;;10.70;42.90;;;;;;5052045;28;20217;-46
2024/01/31 11:31:26;;;;;;;52.67;36.05;;;10.70;42.90;;;;;;5051430;28;20231;-49
2024/01/31 11:33:55;;;;;;;58.87;36.10;;;10.80;43.00;;;;;;5051630;28;20676;-50
2024/01/31 11:36:22;;;;;;;57.70;37.72;;;10.80;43.00;;;;;;5051644;28;20190;-50
2024/01/31 11:38:47;;;;;;;53.80;35.92;;;10.80;43.00;;;;;;5051966;28;20276;-47
2024/01/31 11:41:13;;;;;;;47.43;35.87;;;10.80;43.10;;;;;;5051560;28;20292;-50
2024/01/31 11:43:39;;;;;;;53.23;36.23;;;10.90;43.20;;;;;;5051121;28;20190;-48
2024/01/31 11:46:05;;;;;;;46.67;34.17;;;10.90;43.20;;;;;;5051427;28;20170;-53
2024/01/31 11:48:32;;;;;;;54.55;34.30;;;10.90;43.20;;;;;;5051592;28;20418;-47
2024/01/31 11:50:58;;;;;;;49.92;33.28;;;10.90;43.20;;;;;;5051539;28;20181;-46
2024/01/31 11:53:24;;;;;;;46.93;34.50;;;11.00;43.20;;;;;;5050920;28;20204;-50
2024/01/31 11:55:51;;;;;;;52.33;31.83;;;11.00;43.30;;;;;;5051375;28;20420;-48
2024/01/31 11:58:17;;;;;;;46.92;29.20;;;11.10;43.40;;;;;;5051725;28;20210;-48
2024/01/31 12:00:43;;;;;;;42.95;31.10;;;11.10;43.30;;;;;;5051617;28;20201;-51
2024/01/31 12:03:10;;;;;;;45.95;29.10;;;11.10;43.40;;;;;;5051082;28;20580;-51
2024/01/31 12:05:36;;;;;;;42.28;31.33;;;11.20;43.50;;;;;;5051219;28;20273;-48
2024/01/31 12:08:02;;;;;;;35.87;21.57;;;11.20;43.60;;;;;;5051684;28;20221;-48
2024/01/31 12:10:28;;;;;;;27.80;19.03;;;11.20;43.80;;;;;;5051481;28;20181;-51
2024/01/31 12:12:57;;;;;;;25.70;19.67;;;11.20;43.90;;;;;;5050892;28;20419;-52
2024/01/31 12:15:23;;;;;;;22.23;16.92;;;11.20;44.30;;;;;;5051219;28;20670;-49
2024/01/31 12:17:49;;;;;;;21.90;17.10;;;11.20;44.50;;;;;;5051343;28;20177;-51
2024/01/31 12:20:16;;;;;;;22.95;18.63;;;11.20;44.60;;;;;;5051379;28;20428;-49
2024/01/31 12:22:44;;;;;;;21.67;16.08;;;11.20;44.80;;;;;;5051353;28;20188;-48
2024/01/31 12:25:10;;;;;;;14.45;11.65;;;11.20;44.90;;;;;;5055002;28;20198;-48
2024/01/31 12:27:36;;;;;;;18.37;13.83;;;11.20;44.90;;;;;;5055275;28;20180;-50
2024/01/31 12:30:04;;;;;;;22.90;17.48;;;11.20;44.80;;;;;;5055405;28;20478;-47
2024/01/31 12:32:30;;;;;;;21.50;14.55;;;11.20;45.00;;;;;;5054416;28;20184;-49